Time;durP1;ratioP1;P1;durP2;ratioP2;P2;SDS_P1;SDS_P2;PMS_P1;PMS_P2;Temp;Humidity;BMP_temperature;BMP_pressure;BME280_temperature;BME280_humidity;BME280_pressure;Samples;Min_cycle;Max_cycle;Signal;HPM_P1;HPM_P2
2021/01/10 00:00:48;;;;;;;19.60;14.05;;;;;;;3.06;64.29;100743.36;1696919;82;21154;-41
2021/01/10 00:03:16;;;;;;;22.20;16.05;;;;;;;3.01;64.15;100741.69;1701135;82;21122;-39
2021/01/10 00:05:44;;;;;;;21.15;15.13;;;;;;;2.98;64.25;100747.48;1701420;82;21701;-40
2021/01/10 00:08:12;;;;;;;21.85;15.55;;;;;;;2.97;64.29;100745.31;1701443;82;21122;-38
2021/01/10 00:10:39;;;;;;;22.65;15.83;;;;;;;2.94;64.35;100742.72;1697816;82;21145;-38
2021/01/10 00:13:07;;;;;;;21.68;14.35;;;;;;;2.94;64.33;100752.40;1697469;82;21169;-41
2021/01/10 00:15:34;;;;;;;22.87;15.58;;;;;;;2.90;64.33;100739.76;1699997;82;21152;-39
2021/01/10 00:18:05;;;;;;;17.55;13.75;;;;;;;2.92;64.35;100750.25;1702559;82;21593;-38
2021/01/10 00:20:33;;;;;;;20.35;14.55;;;;;;;2.91;64.35;100744.11;1694233;82;21142;-39
2021/01/10 00:23:03;;;;;;;19.95;14.15;;;;;;;2.91;64.36;100745.43;1699060;82;21130;-41
2021/01/10 00:25:32;;;;;;;19.40;13.83;;;;;;;2.90;64.42;100747.66;1701882;82;21154;-42
2021/01/10 00:28:00;;;;;;;17.37;13.90;;;;;;;2.93;64.52;100754.63;1696720;82;21130;-40
2021/01/10 00:30:28;;;;;;;20.10;14.15;;;;;;;2.98;64.46;100759.34;1709617;82;21538;-39
2021/01/10 00:32:56;;;;;;;17.85;13.53;;;;;;;3.00;64.29;100761.05;1701297;82;21145;-36
2021/01/10 00:35:24;;;;;;;21.65;14.70;;;;;;;3.00;64.33;100762.36;1703785;82;21138;-37
2021/01/10 00:37:56;;;;;;;20.50;14.63;;;;;;;3.01;64.30;100764.08;1702191;84;21114;-41
2021/01/10 00:40:25;;;;;;;17.17;13.78;;;;;;;3.01;64.25;100764.08;1703033;82;21153;-43
2021/01/10 00:42:53;;;;;;;16.77;12.53;;;;;;;3.03;64.14;100761.42;1704278;82;21162;-41
2021/01/10 00:45:21;;;;;;;18.85;13.22;;;;;;;3.02;64.19;100762.30;1707581;82;21137;-40
2021/01/10 00:47:54;;;;;;;19.70;13.75;;;;;;;3.03;64.17;100759.64;1700096;82;21107;-38
2021/01/10 00:50:33;;;;;;;18.57;13.32;;;;;;;3.03;64.19;100764.06;1705058;82;21130;-40
2021/01/10 00:53:05;;;;;;;17.35;13.13;;;;;;;3.01;64.18;100756.63;1693066;83;21148;-41
2021/01/10 00:55:32;;;;;;;16.25;12.07;;;;;;;3.00;64.13;100760.19;1698481;81;21171;-42
2021/01/10 00:58:01;;;;;;;16.65;12.95;;;;;;;2.97;64.12;100760.23;1719042;82;21176;-42
2021/01/10 01:00:29;;;;;;;19.77;13.20;;;;;;;2.93;64.26;100751.54;1725240;81;21181;-39
2021/01/10 01:02:56;;;;;;;17.65;13.18;;;;;;;2.95;64.19;100755.47;1719987;81;21668;-40
2021/01/10 01:05:24;;;;;;;19.98;13.95;;;;;;;2.94;64.23;100755.89;1725483;81;21596;-40
2021/01/10 01:07:53;;;;;;;16.55;12.58;;;;;;;2.96;64.21;100761.14;1698170;82;21182;-40
2021/01/10 01:10:23;;;;;;;17.52;12.80;;;;;;;2.96;64.28;100751.92;1726018;81;21172;-41
2021/01/10 01:12:51;;;;;;;20.12;13.75;;;;;;;2.95;64.39;100752.37;1725833;81;21157;-43
2021/01/10 01:15:19;;;;;;;19.10;14.05;;;;;;;2.96;64.37;100755.87;1718964;81;21149;-40
2021/01/10 01:17:47;;;;;;;19.05;13.83;;;;;;;2.98;64.27;100752.76;1722773;81;21308;-40
2021/01/10 01:20:15;;;;;;;15.63;11.40;;;;;;;2.97;64.25;100757.59;1722546;82;21454;-41
2021/01/10 01:22:43;;;;;;;15.75;13.00;;;;;;;2.98;64.35;100750.98;1722784;81;21616;-42
2021/01/10 01:25:12;;;;;;;16.42;11.95;;;;;;;3.01;64.30;100759.27;1723883;81;21272;-38
2021/01/10 01:27:40;;;;;;;21.10;13.38;;;;;;;3.03;64.27;100755.70;1694122;81;21199;-41
2021/01/10 01:30:09;;;;;;;14.65;11.53;;;;;;;3.05;64.16;100756.98;1721360;83;21562;-42
2021/01/10 01:32:36;;;;;;;17.98;13.38;;;;;;;3.02;64.17;100761.88;1726113;81;21153;-39
2021/01/10 01:35:06;;;;;;;19.77;14.43;;;;;;;3.03;64.24;100760.11;1726093;81;21161;-41
2021/01/10 01:37:34;;;;;;;15.95;12.33;;;;;;;3.06;64.27;100760.48;1725209;82;21125;-43
2021/01/10 01:40:10;;;;;;;15.50;12.28;;;;;;;3.07;64.16;100760.43;1725096;81;21177;-41
2021/01/10 01:42:39;;;;;;;17.17;13.10;;;;;;;3.06;64.16;100757.39;1723293;81;21149;-40
2021/01/10 01:45:08;;;;;;;16.77;12.93;;;;;;;3.04;64.11;100760.51;1727190;81;21141;-42
2021/01/10 01:47:36;;;;;;;17.27;13.35;;;;;;;3.01;64.19;100757.49;1725677;81;22342;-41
2021/01/10 01:50:05;;;;;;;20.12;14.23;;;;;;;3.03;64.22;100754.83;1721763;81;21158;-38
2021/01/10 01:52:33;;;;;;;16.35;12.73;;;;;;;3.04;64.15;100755.23;1721047;81;21165;-37
2021/01/10 01:55:04;;;;;;;17.25;12.82;;;;;;;3.05;64.16;100758.31;1701875;82;21555;-38
2021/01/10 01:57:31;;;;;;;15.18;11.90;;;;;;;3.04;64.22;100760.51;1698973;82;21165;-44
2021/01/10 01:59:59;;;;;;;18.48;12.95;;;;;;;3.02;64.20;100757.93;1704090;83;21119;-39
2021/01/10 02:02:27;;;;;;;20.00;14.60;;;;;;;3.04;64.24;100764.46;1705159;82;21123;-37
2021/01/10 02:05:08;;;;;;;17.12;13.22;;;;;;;3.04;64.24;100770.59;1709282;82;21162;-40
2021/01/10 02:07:59;;;;;;;16.85;12.90;;;;;;;3.02;64.24;100767.15;1703101;84;21490;-40
2021/01/10 02:10:31;;;;;;;17.45;13.70;;;;;;;2.98;64.25;100764.16;1708847;82;21111;-40
2021/01/10 02:13:01;;;;;;;18.02;13.10;;;;;;;2.97;64.29;100769.02;1702606;82;21137;-41
2021/01/10 02:15:34;;;;;;;18.80;14.15;;;;;;;2.96;64.42;100771.68;1701767;82;21134;-44
2021/01/10 02:18:04;;;;;;;17.70;13.85;;;;;;;2.96;64.47;100770.36;1679517;82;21535;-44
2021/01/10 02:20:36;;;;;;;19.62;14.45;;;;;;;2.96;64.47;100768.59;1686858;82;21142;-40
2021/01/10 02:23:25;;;;;;;21.40;14.07;;;;;;;2.98;64.47;100772.06;1703883;82;21142;-40
2021/01/10 02:26:00;;;;;;;22.17;16.02;;;;;;;3.02;64.50;100767.15;1804314;78;22941;-41
2021/01/10 02:28:30;;;;;;;19.42;14.58;;;;;;;2.98;64.59;100768.56;1720059;81;21145;-40
2021/01/10 02:31:00;;;;;;;19.35;14.68;;;;;;;2.97;64.65;100768.13;1714101;82;21559;-42
2021/01/10 02:33:42;;;;;;;20.45;15.23;;;;;;;2.99;64.77;100770.28;1719438;82;21578;-40
2021/01/10 02:36:40;;;;;;;19.70;15.58;;;;;;;3.01;64.81;100769.35;1722071;81;21771;-40
2021/01/10 02:39:18;;;;;;;20.60;14.05;;;;;;;3.03;64.86;100771.50;1723410;81;21181;-41
2021/01/10 02:41:52;;;;;;;20.00;15.03;;;;;;;3.01;64.80;100766.72;1725420;81;21182;-37
2021/01/10 02:44:28;;;;;;;22.98;15.10;;;;;;;3.01;64.87;100765.86;1740229;81;21118;-42
2021/01/10 02:46:56;;;;;;;20.35;14.80;;;;;;;3.02;64.88;100768.89;1741093;81;21142;-41
2021/01/10 02:49:24;;;;;;;23.22;14.87;;;;;;;3.04;64.88;100764.00;1716459;81;21184;-47
2021/01/10 02:51:52;;;;;;;24.40;16.62;;;;;;;3.07;64.86;100764.84;1737567;81;21158;-39
2021/01/10 02:54:19;;;;;;;18.82;13.78;;;;;;;3.06;64.85;100764.44;1719424;81;21134;-38
2021/01/10 02:57:04;;;;;;;22.32;15.43;;;;;;;3.04;64.92;100764.46;1719349;82;21572;-44
2021/01/10 02:59:33;;;;;;;23.85;14.68;;;;;;;3.06;64.90;100763.98;1719306;81;21145;-39
2021/01/10 03:02:03;;;;;;;22.70;14.90;;;;;;;3.04;64.92;100768.41;1717858;83;21311;-40
2021/01/10 03:04:31;;;;;;;21.17;15.18;;;;;;;3.05;64.93;100766.22;1712317;83;21165;-40
2021/01/10 03:06:59;;;;;;;22.20;16.97;;;;;;;3.06;64.89;100762.66;1711085;83;21154;-40
2021/01/10 03:09:27;;;;;;;20.37;15.78;;;;;;;3.07;64.89;100768.80;1723828;81;21146;-45
2021/01/10 03:11:54;;;;;;;25.30;15.53;;;;;;;3.06;64.91;100768.39;1704963;82;21153;-41
2021/01/10 03:14:22;;;;;;;20.65;15.58;;;;;;;3.08;64.92;100771.86;1717582;82;21169;-37
2021/01/10 03:16:50;;;;;;;21.23;15.20;;;;;;;3.07;64.92;100770.97;1723053;81;21133;-38
2021/01/10 03:19:18;;;;;;;26.07;16.00;;;;;;;3.04;64.94;100769.27;1707454;83;21158;-38
2021/01/10 03:21:45;;;;;;;21.42;15.30;;;;;;;3.06;64.95;100766.61;1706635;82;21576;-38
2021/01/10 03:24:13;;;;;;;24.05;16.00;;;;;;;3.11;64.95;100763.88;1720618;81;21262;-38
2021/01/10 03:26:41;;;;;;;20.20;14.85;;;;;;;3.12;64.87;100768.23;1717939;82;21130;-42
2021/01/10 03:29:09;;;;;;;20.80;14.55;;;;;;;3.11;64.86;100772.64;1706325;83;21190;-40
2021/01/10 03:31:36;;;;;;;24.12;17.95;;;;;;;3.09;64.92;100774.44;1721239;82;21157;-38
2021/01/10 03:34:04;;;;;;;21.00;15.43;;;;;;;3.07;64.96;100773.61;1709754;82;21165;-40
2021/01/10 03:36:32;;;;;;;23.52;16.05;;;;;;;3.06;64.96;100771.02;1724085;82;21154;-44
2021/01/10 03:38:59;;;;;;;22.02;16.07;;;;;;;3.05;64.96;100771.48;1719813;82;21176;-40
2021/01/10 03:41:27;;;;;;;24.65;15.40;;;;;;;3.02;64.97;100771.53;1718471;82;21139;-41
2021/01/10 03:43:54;;;;;;;21.60;14.55;;;;;;;3.01;65.00;100768.48;1735062;82;21105;-38
2021/01/10 03:46:22;;;;;;;18.60;14.40;;;;;;;3.01;65.05;100772.44;1717896;82;21554;-39
2021/01/10 03:48:49;;;;;;;21.37;16.07;;;;;;;3.03;65.07;100764.06;1734908;81;21531;-42
2021/01/10 03:51:17;;;;;;;21.97;15.48;;;;;;;3.06;65.05;100771.02;1719961;82;21169;-42
2021/01/10 03:53:45;;;;;;;21.00;15.28;;;;;;;3.06;65.07;100772.34;1714405;82;21107;-41
2021/01/10 03:56:12;;;;;;;20.12;14.38;;;;;;;3.05;65.07;100768.84;1717802;82;21126;-42
2021/01/10 03:58:40;;;;;;;21.15;15.25;;;;;;;3.04;65.04;100768.41;1711354;82;21657;-41
2021/01/10 04:01:07;;;;;;;25.30;17.23;;;;;;;3.04;64.97;100771.05;1711386;82;21149;-40
2021/01/10 04:03:36;;;;;;;21.45;15.72;;;;;;;3.01;65.00;100775.94;1702528;83;21162;-43
2021/01/10 04:06:03;;;;;;;27.95;17.57;;;;;;;2.99;65.02;100775.09;1723265;82;21149;-41
2021/01/10 04:08:32;;;;;;;24.25;17.25;;;;;;;2.99;65.04;100771.61;1713898;82;21177;-39
2021/01/10 04:10:59;;;;;;;22.37;16.15;;;;;;;3.00;65.09;100775.53;1708029;83;21155;-41
2021/01/10 04:13:26;;;;;;;20.12;15.00;;;;;;;3.01;65.05;100776.39;1719427;82;21181;-41
2021/01/10 04:15:54;;;;;;;20.68;15.70;;;;;;;2.98;65.07;100770.75;1709852;83;21465;-42
2021/01/10 04:18:22;;;;;;;22.80;16.75;;;;;;;2.95;65.10;100780.05;1740988;82;21130;-40
2021/01/10 04:20:50;;;;;;;23.50;16.62;;;;;;;2.97;65.14;100783.94;1733655;82;21137;-43
2021/01/10 04:23:17;;;;;;;21.97;16.15;;;;;;;2.97;65.16;100782.20;1734286;82;21138;-44
2021/01/10 04:25:45;;;;;;;20.23;14.75;;;;;;;2.98;65.28;100784.38;1731226;82;21979;-39
2021/01/10 04:28:12;;;;;;;22.73;16.55;;;;;;;3.01;65.28;100785.62;1770900;80;21162;-42
2021/01/10 04:30:40;;;;;;;23.35;15.85;;;;;;;3.03;65.26;100790.41;1770950;80;21571;-40
2021/01/10 04:33:07;;;;;;;22.55;15.85;;;;;;;3.06;65.19;100800.88;1773132;80;21157;-40
2021/01/10 04:35:35;;;;;;;22.25;15.45;;;;;;;3.08;65.17;100793.80;1769527;80;21141;-42
2021/01/10 04:38:03;;;;;;;22.17;15.38;;;;;;;3.09;65.11;100794.20;1765275;80;21137;-43
2021/01/10 04:40:32;;;;;;;23.32;16.12;;;;;;;3.07;65.12;100802.59;1702001;83;21155;-42
2021/01/10 04:42:59;;;;;;;20.08;15.20;;;;;;;3.08;65.14;100810.94;1745797;80;21907;-43
2021/01/10 04:45:29;;;;;;;22.05;15.50;;;;;;;3.08;65.11;100810.94;1771278;80;21153;-40
2021/01/10 04:47:57;;;;;;;20.70;14.75;;;;;;;3.07;65.14;100811.81;1708802;82;21122;-42
2021/01/10 04:50:24;;;;;;;20.40;14.28;;;;;;;3.07;65.14;100817.09;1767521;80;21164;-39
2021/01/10 04:52:53;;;;;;;18.70;14.93;;;;;;;3.09;65.08;100819.25;1682404;82;21569;-41
2021/01/10 04:55:21;;;;;;;24.75;16.27;;;;;;;3.09;65.08;100820.56;1769175;80;21537;-41
2021/01/10 04:57:50;;;;;;;21.20;15.65;;;;;;;3.10;65.08;100827.59;1772258;80;21577;-41
2021/01/10 05:00:19;;;;;;;20.20;14.23;;;;;;;3.12;65.13;100825.76;1766502;80;21145;-43
2021/01/10 05:02:49;;;;;;;19.42;14.58;;;;;;;3.16;65.06;100826.58;1768587;80;21858;-42
2021/01/10 05:05:17;;;;;;;18.87;14.40;;;;;;;3.17;65.01;100829.61;1773278;80;21167;-40
2021/01/10 05:07:45;;;;;;;19.30;14.23;;;;;;;3.18;64.95;100836.64;1729582;80;21133;-41
2021/01/10 05:10:13;;;;;;;20.92;14.98;;;;;;;3.19;64.85;100834.41;1767843;80;21135;-41
2021/01/10 05:12:41;;;;;;;21.87;14.60;;;;;;;3.21;64.80;100838.74;1768704;80;21158;-42
2021/01/10 05:15:10;;;;;;;20.50;14.35;;;;;;;3.19;64.68;100841.86;1772367;80;21512;-40
2021/01/10 05:17:39;;;;;;;21.30;15.48;;;;;;;3.16;64.73;100842.39;1764701;80;21145;-38
2021/01/10 05:20:10;;;;;;;17.55;13.83;;;;;;;3.15;64.67;100841.53;1766920;80;21173;-41
2021/01/10 05:22:38;;;;;;;18.85;13.75;;;;;;;3.14;64.68;100841.55;1769287;80;21601;-41
2021/01/10 05:25:13;;;;;;;19.85;14.75;;;;;;;3.14;64.66;100845.50;1765930;80;21147;-44
2021/01/10 05:27:41;;;;;;;21.90;15.38;;;;;;;3.13;64.72;100848.59;1744293;80;21151;-41
2021/01/10 05:30:10;;;;;;;20.17;14.63;;;;;;;3.16;64.76;100847.66;1746305;80;21122;-42
2021/01/10 05:32:38;;;;;;;19.90;14.87;;;;;;;3.17;64.69;100849.38;1744115;80;21155;-43
2021/01/10 05:35:07;;;;;;;21.10;14.55;;;;;;;3.18;64.69;100853.31;1749344;80;21135;-42
2021/01/10 05:37:37;;;;;;;21.48;15.05;;;;;;;3.20;64.63;100851.52;1747057;80;21548;-41
2021/01/10 05:40:06;;;;;;;20.52;14.80;;;;;;;3.21;64.61;100855.02;1748598;80;21179;-41
2021/01/10 05:42:34;;;;;;;20.60;14.43;;;;;;;3.21;64.64;100855.02;1745291;80;21167;-41
2021/01/10 05:45:05;;;;;;;18.17;13.62;;;;;;;3.22;64.57;100857.59;1742361;80;21436;-42
2021/01/10 05:47:39;;;;;;;18.25;14.28;;;;;;;3.25;64.56;100857.98;1743869;80;21175;-41
2021/01/10 05:50:13;;;;;;;22.17;16.10;;;;;;;3.23;64.53;100863.30;1746160;80;21141;-41
2021/01/10 05:52:41;;;;;;;21.00;14.53;;;;;;;3.20;64.58;100864.70;1747590;80;21162;-40
2021/01/10 05:55:10;;;;;;;20.72;14.45;;;;;;;3.22;64.54;100871.23;1746875;80;21147;-38
2021/01/10 05:57:37;;;;;;;21.48;15.65;;;;;;;3.20;64.55;100869.97;1745669;80;21127;-40
2021/01/10 06:00:06;;;;;;;21.15;14.33;;;;;;;3.20;64.61;100876.56;1707785;82;21157;-42
2021/01/10 06:02:37;;;;;;;20.55;14.95;;;;;;;3.19;64.58;100874.80;1683437;83;21203;-39
2021/01/10 06:05:18;;;;;;;17.92;13.28;;;;;;;3.19;64.64;100876.12;1683069;83;21633;-42
2021/01/10 06:07:47;;;;;;;19.23;14.25;;;;;;;3.19;64.67;100873.48;1664956;84;21172;-44
2021/01/10 06:10:27;;;;;;;20.68;14.73;;;;;;;3.20;64.66;100871.29;1741771;80;21637;-40
2021/01/10 06:13:07;;;;;;;19.17;13.85;;;;;;;3.22;64.69;100871.23;1747668;80;21139;-43
2021/01/10 06:15:35;;;;;;;19.87;14.35;;;;;;;3.17;64.63;100870.47;1738452;81;21637;-45
2021/01/10 06:18:04;;;;;;;20.95;15.35;;;;;;;3.16;64.74;100877.97;1743364;80;21654;-43
2021/01/10 06:20:33;;;;;;;19.00;13.78;;;;;;;3.16;64.69;100882.78;1740139;80;21652;-42
2021/01/10 06:23:03;;;;;;;;;;;;;;;3.15;64.74;100878.85;1742959;80;21166;-46
2021/01/10 06:25:32;;;;;;;19.82;13.58;;;;;;;3.14;64.73;100883.72;1741574;82;20190;-45
2021/01/10 06:28:05;;;;;;;21.42;14.15;;;;;;;3.15;64.83;100882.80;1670692;84;21176;-45
2021/01/10 06:30:34;;;;;;;23.52;15.63;;;;;;;3.13;64.88;100885.50;1669227;85;21475;-42
2021/01/10 06:33:11;;;;;;;20.92;14.43;;;;;;;3.15;64.92;100886.34;1682090;84;21138;-42
2021/01/10 06:35:40;;;;;;;21.12;14.85;;;;;;;3.16;64.90;100892.01;1668513;85;21155;-42
2021/01/10 06:38:10;;;;;;;21.17;14.83;;;;;;;3.17;64.88;100896.37;1672374;85;21217;-39
2021/01/10 06:40:40;;;;;;;21.75;14.03;;;;;;;3.17;64.92;100899.00;1677099;84;21197;-42
2021/01/10 06:43:08;;;;;;;18.80;14.15;;;;;;;3.19;65.03;100907.75;1668863;85;21171;-40
2021/01/10 06:45:39;;;;;;;19.82;14.38;;;;;;;3.20;64.99;100910.83;1674801;84;21153;-42
2021/01/10 06:48:08;;;;;;;22.85;15.53;;;;;;;3.21;64.96;100912.55;1677868;84;21633;-44
2021/01/10 06:50:36;;;;;;;18.60;13.50;;;;;;;3.22;64.97;100917.36;1699449;83;21146;-42
2021/01/10 06:53:13;;;;;;;16.73;13.10;;;;;;;3.23;65.02;100917.80;1677121;84;21161;-42
2021/01/10 06:55:46;;;;;;;18.40;13.45;;;;;;;3.23;65.01;100919.98;1684974;84;21186;-40
2021/01/10 06:58:13;;;;;;;22.75;14.40;;;;;;;3.23;65.03;100917.34;1676628;84;21212;-42
2021/01/10 07:00:51;;;;;;;20.00;13.65;;;;;;;3.22;65.03;100920.86;1673295;84;22004;-39
2021/01/10 07:03:50;;;;;;;19.27;13.72;;;;;;;3.25;65.02;100926.09;1801182;78;23121;-41
2021/01/10 07:06:17;;;;;;;20.20;14.43;;;;;;;3.22;65.11;100927.91;1758646;80;21521;-37
2021/01/10 07:08:53;;;;;;;16.67;13.40;;;;;;;3.24;65.12;100935.34;1728128;81;21646;-41
2021/01/10 07:11:27;;;;;;;20.70;14.10;;;;;;;3.24;65.13;100943.25;1706575;83;21189;-41
2021/01/10 07:14:03;;;;;;;18.50;14.78;;;;;;;3.23;65.14;100944.16;1705318;82;21621;-40
2021/01/10 07:16:31;;;;;;;18.37;13.35;;;;;;;3.24;65.20;100941.47;1703132;82;21164;-38
2021/01/10 07:19:03;;;;;;;19.50;14.07;;;;;;;3.28;65.18;100945.39;1715961;81;21192;-38
2021/01/10 07:21:44;;;;;;;19.45;14.03;;;;;;;3.29;65.16;100937.88;1732798;81;21153;-40
2021/01/10 07:24:20;;;;;;;21.95;13.80;;;;;;;3.30;65.15;100944.88;1727348;81;21152;-41
2021/01/10 07:26:55;;;;;;;20.30;14.28;;;;;;;3.31;65.22;100942.22;1740415;81;21156;-42
2021/01/10 07:29:43;;;;;;;22.37;15.40;;;;;;;3.32;65.18;100941.77;1736582;81;21613;-42
2021/01/10 07:32:18;;;;;;;19.75;15.08;;;;;;;3.34;65.21;100945.24;1720185;81;21197;-40
2021/01/10 07:34:51;;;;;;;21.07;15.25;;;;;;;3.35;65.22;100952.24;1704475;82;21177;-42
2021/01/10 07:37:28;;;;;;;21.15;15.80;;;;;;;3.35;65.23;100951.81;1711178;81;21227;-40
2021/01/10 07:40:07;;;;;;;22.02;15.10;;;;;;;3.38;65.25;100949.56;1701258;83;21771;-44
2021/01/10 07:42:39;;;;;;;18.92;14.00;;;;;;;3.41;65.20;100956.08;1711209;81;21178;-39
2021/01/10 07:45:20;;;;;;;21.27;15.05;;;;;;;3.41;65.18;100953.45;1744012;81;21193;-39
2021/01/10 07:47:51;;;;;;;21.10;15.40;;;;;;;3.40;65.08;100951.69;1734792;81;21196;-38
2021/01/10 07:50:24;;;;;;;;;;;;;;;3.35;65.05;100950.50;1708704;82;21185;-40
2021/01/10 07:52:55;;;;;;;21.48;14.45;;;;;;;3.32;65.26;100957.58;1702015;83;20167;-41
2021/01/10 07:55:24;;;;;;;;;;;;;;;3.31;65.32;100960.68;1713648;83;21177;-39
2021/01/10 07:58:06;;;;;;;20.55;15.03;;;;;;;3.33;65.35;100959.34;1699545;83;20191;-41
2021/01/10 08:00:36;;;;;;;22.37;15.93;;;;;;;3.35;65.35;100965.42;1699160;82;21148;-39
2021/01/10 08:03:09;;;;;;;22.20;15.43;;;;;;;3.37;65.35;100967.12;1695731;82;21257;-41
2021/01/10 08:05:41;;;;;;;24.35;16.23;;;;;;;3.40;65.23;100962.23;1676421;84;21903;-38
2021/01/10 08:08:17;;;;;;;19.85;14.63;;;;;;;3.37;65.29;100964.48;1676123;84;21315;-39
2021/01/10 08:10:52;;;;;;;22.13;15.38;;;;;;;3.38;65.25;100966.70;1676151;84;21208;-55
2021/01/10 08:13:44;;;;;;;20.60;14.98;;;;;;;3.35;65.28;100970.27;1667559;84;21137;-40
2021/01/10 08:16:14;;;;;;;21.12;16.07;;;;;;;3.35;65.29;100973.33;1679327;84;21768;-39
2021/01/10 08:18:45;;;;;;;22.48;15.35;;;;;;;3.36;65.28;100977.27;1677657;84;21173;-40
2021/01/10 08:21:14;;;;;;;22.55;15.20;;;;;;;3.35;65.29;100976.86;1666946;84;21552;-41
2021/01/10 08:23:46;;;;;;;21.40;14.63;;;;;;;3.34;65.31;100972.92;1674140;84;21197;-40
2021/01/10 08:26:17;;;;;;;23.02;14.90;;;;;;;3.31;65.45;100979.13;1686319;83;21185;-39
2021/01/10 08:28:57;;;;;;;24.18;15.68;;;;;;;3.28;65.57;100977.89;1704116;83;21173;-39
2021/01/10 08:31:26;;;;;;;22.30;15.37;;;;;;;3.25;65.65;100969.59;1688409;83;21188;-38
2021/01/10 08:34:02;;;;;;;23.22;16.67;;;;;;;3.27;65.69;100975.27;1687477;83;21212;-38
2021/01/10 08:36:30;;;;;;;20.62;15.90;;;;;;;3.25;65.88;100968.69;1711671;82;21202;-39
2021/01/10 08:39:10;;;;;;;21.73;14.70;;;;;;;3.26;65.81;100971.77;1690938;83;21145;-40
2021/01/10 08:41:44;;;;;;;22.37;14.50;;;;;;;3.25;65.89;100970.02;1698981;83;21169;-41
2021/01/10 08:44:15;;;;;;;21.00;16.10;;;;;;;3.27;65.96;100972.17;1688675;83;21185;-41
2021/01/10 08:46:51;;;;;;;19.10;14.07;;;;;;;3.30;65.87;100974.77;1704070;83;21541;-39
2021/01/10 08:49:20;;;;;;;19.92;14.93;;;;;;;3.29;65.88;100977.43;1689303;83;21989;-41
2021/01/10 08:51:51;;;;;;;20.43;15.08;;;;;;;3.28;66.04;100975.25;1667759;84;21602;-41
2021/01/10 08:54:23;;;;;;;20.55;14.58;;;;;;;3.31;66.01;100976.49;1669831;84;21672;-38
2021/01/10 08:56:56;;;;;;;19.87;14.83;;;;;;;3.34;66.04;100976.88;1670533;84;21168;-40
2021/01/10 08:59:26;;;;;;;23.30;16.27;;;;;;;3.36;66.04;100976.41;1688800;82;21198;-38
2021/01/10 09:01:53;;;;;;;17.67;13.32;;;;;;;3.39;65.92;100980.29;1683350;83;21767;-40
2021/01/10 09:04:21;;;;;;;19.92;13.98;;;;;;;3.39;66.00;100969.74;1636760;84;21553;-42
2021/01/10 09:07:12;;;;;;;19.35;14.23;;;;;;;3.42;65.99;100966.58;1701852;83;21153;-37
2021/01/10 09:10:03;;;;;;;20.00;14.70;;;;;;;3.43;65.96;100964.38;1631314;86;21217;-37
2021/01/10 09:12:38;;;;;;;18.52;12.95;;;;;;;3.47;65.83;100970.44;1615219;86;21238;-38
2021/01/10 09:15:33;;;;;;;22.00;16.25;;;;;;;3.52;65.82;100957.16;1757427;79;22660;-40
2021/01/10 09:18:04;;;;;;;22.87;15.32;;;;;;;3.45;65.76;100959.95;1729792;80;21134;-41
2021/01/10 09:20:34;;;;;;;20.85;14.83;;;;;;;3.40;65.86;100953.91;1733119;80;21173;-41
2021/01/10 09:23:09;;;;;;;20.37;14.13;;;;;;;3.26;66.16;100963.86;1728581;82;21137;-39
2021/01/10 09:25:38;;;;;;;19.50;14.13;;;;;;;3.26;66.16;100963.86;1730206;80;21167;-40
2021/01/10 09:28:19;;;;;;;20.55;14.70;;;;;;;3.27;66.04;100967.36;1749559;80;21099;-39
2021/01/10 09:30:53;;;;;;;19.70;14.23;;;;;;;3.28;66.13;100964.70;1730269;82;21637;-40
2021/01/10 09:33:28;;;;;;;19.05;14.40;;;;;;;3.34;66.08;100967.66;1729373;80;21141;-39
2021/01/10 09:35:59;;;;;;;18.87;13.50;;;;;;;3.38;66.13;100956.16;1728977;80;21161;-37
2021/01/10 09:38:29;;;;;;;21.93;15.65;;;;;;;3.38;66.02;100962.75;1732568;80;21150;-42
2021/01/10 09:41:10;;;;;;;;;;;;;;;3.38;65.97;100966.25;1735639;82;21138;-41
2021/01/10 09:43:50;;;;;;;18.73;13.32;;;;;;;3.35;65.91;100964.11;1729225;80;20577;-42
2021/01/10 09:46:25;;;;;;;20.48;15.30;;;;;;;3.35;65.89;100962.78;1733535;80;21118;-42
2021/01/10 09:49:03;;;;;;;19.82;14.20;;;;;;;3.33;65.99;100962.84;1679754;83;21192;-42
2021/01/10 09:51:39;;;;;;;23.02;15.30;;;;;;;3.32;66.13;100965.03;1682380;84;21109;-40
2021/01/10 09:54:25;;;;;;;20.23;14.68;;;;;;;3.34;65.95;100964.56;1693586;82;21494;-39
2021/01/10 09:56:55;;;;;;;20.08;14.20;;;;;;;3.34;65.96;100960.61;1697901;82;21133;-42
2021/01/10 09:59:43;;;;;;;20.17;15.45;;;;;;;3.34;66.01;100955.79;1692001;82;21639;-39
2021/01/10 10:02:19;;;;;;;22.50;15.32;;;;;;;3.34;65.98;100953.16;1685853;84;21316;-39
2021/01/10 10:04:49;;;;;;;19.55;14.25;;;;;;;3.32;65.97;100960.22;1672129;84;21158;-40
2021/01/10 10:07:36;;;;;;;22.05;15.23;;;;;;;3.34;66.10;100957.11;1671696;84;21930;-39
2021/01/10 10:10:07;;;;;;;20.48;14.15;;;;;;;3.38;66.01;100957.47;1678171;83;21166;-40
2021/01/10 10:12:35;;;;;;;19.25;14.63;;;;;;;3.37;65.66;100952.63;1668020;85;21181;-39
2021/01/10 10:15:08;;;;;;;21.00;15.65;;;;;;;3.37;65.67;100960.53;1666632;84;21222;-39
2021/01/10 10:17:37;;;;;;;17.42;12.55;;;;;;;3.35;65.68;100960.15;1676447;84;21184;-40
2021/01/10 10:20:06;;;;;;;18.87;13.62;;;;;;;3.32;65.68;100961.53;1664024;84;21586;-41
2021/01/10 10:22:35;;;;;;;18.60;13.00;;;;;;;3.34;65.71;100959.74;1674801;84;21641;-40
2021/01/10 10:25:05;;;;;;;17.80;13.08;;;;;;;3.38;65.61;100952.20;1663044;85;21189;-40
2021/01/10 10:27:34;;;;;;;20.70;14.75;;;;;;;3.41;65.52;100955.63;1645482;86;21610;-39
2021/01/10 10:30:03;;;;;;;21.87;15.68;;;;;;;3.43;65.45;100952.97;1671018;85;21196;-42
2021/01/10 10:32:31;;;;;;;18.02;14.23;;;;;;;3.44;65.49;100950.28;1674710;84;21149;-39
2021/01/10 10:34:59;;;;;;;20.85;15.58;;;;;;;3.46;65.52;100951.58;1662846;84;21174;-40
2021/01/10 10:37:27;;;;;;;21.33;14.30;;;;;;;3.46;65.50;100949.80;1651826;85;21190;-41
2021/01/10 10:39:54;;;;;;;21.23;14.68;;;;;;;3.49;65.37;100950.19;1660701;84;21126;-38
2021/01/10 10:42:22;;;;;;;19.57;14.13;;;;;;;3.51;65.09;100952.80;1653092;85;21310;-40
2021/01/10 10:44:49;;;;;;;18.70;12.78;;;;;;;3.50;65.04;100945.31;1663483;84;21724;-42
2021/01/10 10:47:17;;;;;;;22.13;15.53;;;;;;;3.48;65.09;100947.14;1647438;85;21166;-44
2021/01/10 10:49:45;;;;;;;21.33;13.53;;;;;;;3.49;65.15;100948.87;1647667;85;21180;-41
2021/01/10 10:52:13;;;;;;;19.23;13.43;;;;;;;3.52;65.10;100944.84;1665758;84;21601;-43
2021/01/10 10:54:42;;;;;;;23.98;14.47;;;;;;;3.55;65.01;100950.03;1649934;85;21648;-44
2021/01/10 10:57:10;;;;;;;21.25;14.50;;;;;;;3.57;64.98;100954.83;1676120;84;21168;-42
2021/01/10 10:59:39;;;;;;;21.65;13.72;;;;;;;3.58;64.98;100949.99;1675091;84;21165;-40
2021/01/10 11:02:09;;;;;;;19.70;14.58;;;;;;;3.56;64.92;100949.16;1676982;84;21165;-39
2021/01/10 11:04:42;;;;;;;17.65;12.85;;;;;;;3.57;64.97;100950.02;1661273;84;21153;-40
2021/01/10 11:07:09;;;;;;;17.57;12.45;;;;;;;3.58;64.94;100951.31;1646766;85;21146;-39
2021/01/10 11:09:37;;;;;;;21.62;14.65;;;;;;;3.63;64.94;100944.63;1651752;85;21177;-40
2021/01/10 11:12:10;;;;;;;20.30;13.90;;;;;;;3.64;64.82;100945.89;1651161;85;21133;-38
2021/01/10 11:14:38;;;;;;;19.90;14.40;;;;;;;3.67;64.81;100943.62;1648870;85;21180;-40
2021/01/10 11:17:11;;;;;;;18.48;13.43;;;;;;;3.70;64.81;100946.19;1694682;82;21127;-45
2021/01/10 11:19:39;;;;;;;19.27;13.03;;;;;;;3.72;64.80;100945.71;1692722;82;21182;-40
2021/01/10 11:22:07;;;;;;;19.82;14.18;;;;;;;3.73;64.67;100938.23;1696749;82;21138;-42
2021/01/10 11:24:36;;;;;;;21.20;14.45;;;;;;;3.73;64.62;100944.83;1666816;85;21167;-40
2021/01/10 11:27:04;;;;;;;20.77;14.20;;;;;;;3.74;64.56;100939.95;1634336;86;21602;-38
2021/01/10 11:29:31;;;;;;;22.70;15.18;;;;;;;3.78;64.48;100943.38;1708901;82;21298;-42
2021/01/10 11:31:59;;;;;;;22.60;14.80;;;;;;;3.79;64.46;100942.03;1700370;83;21126;-38
2021/01/10 11:34:27;;;;;;;19.45;13.83;;;;;;;3.77;64.18;100945.16;1704018;82;21181;-40
2021/01/10 11:36:55;;;;;;;22.55;14.47;;;;;;;3.77;64.01;100946.93;1708762;82;21142;-41